sensor_id;sensor_type;location;lat;lon;timestamp;P1;durP1;ratioP1;P2;durP2;ratioP2
32295;SDS011;18781;51.550;5.418;2023-05-21T00:00:18;6.45;;;4.20;;
32295;SDS011;18781;51.550;5.418;2023-05-21T00:02:44;9.02;;;4.20;;
32295;SDS011;18781;51.550;5.418;2023-05-21T00:05:10;5.50;;;3.83;;
32295;SDS011;18781;51.550;5.418;2023-05-21T00:07:38;8.40;;;4.05;;
32295;SDS011;18781;51.550;5.418;2023-05-21T00:10:04;11.13;;;5.10;;
32295;SDS011;18781;51.550;5.418;2023-05-21T00:12:30;7.60;;;4.40;;
32295;SDS011;18781;51.550;5.418;2023-05-21T00:14:56;7.72;;;4.93;;
32295;SDS011;18781;51.550;5.418;2023-05-21T00:17:22;9.27;;;5.28;;
32295;SDS011;18781;51.550;5.418;2023-05-21T00:19:47;9.30;;;5.00;;
32295;SDS011;18781;51.550;5.418;2023-05-21T00:22:14;6.78;;;4.28;;
32295;SDS011;18781;51.550;5.418;2023-05-21T00:24:40;8.55;;;4.70;;
32295;SDS011;18781;51.550;5.418;2023-05-21T00:27:05;10.35;;;4.57;;
32295;SDS011;18781;51.550;5.418;2023-05-21T00:29:31;5.45;;;4.13;;
32295;SDS011;18781;51.550;5.418;2023-05-21T00:31:56;5.82;;;4.05;;
32295;SDS011;18781;51.550;5.418;2023-05-21T00:34:22;9.05;;;4.45;;
32295;SDS011;18781;51.550;5.418;2023-05-21T00:36:47;10.27;;;4.30;;
32295;SDS011;18781;51.550;5.418;2023-05-21T00:39:13;7.88;;;4.32;;
32295;SDS011;18781;51.550;5.418;2023-05-21T00:41:39;7.10;;;4.18;;
32295;SDS011;18781;51.550;5.418;2023-05-21T00:44:06;9.15;;;4.10;;
32295;SDS011;18781;51.550;5.418;2023-05-21T00:46:33;5.35;;;3.65;;
32295;SDS011;18781;51.550;5.418;2023-05-21T00:48:58;8.98;;;3.92;;
32295;SDS011;18781;51.550;5.418;2023-05-21T00:51:25;6.85;;;4.25;;
32295;SDS011;18781;51.550;5.418;2023-05-21T00:53:54;8.13;;;4.15;;
32295;SDS011;18781;51.550;5.418;2023-05-21T00:56:20;4.85;;;3.75;;
32295;SDS011;18781;51.550;5.418;2023-05-21T00:58:48;6.18;;;4.38;;
32295;SDS011;18781;51.550;5.418;2023-05-21T01:01:18;6.22;;;4.40;;
32295;SDS011;18781;51.550;5.418;2023-05-21T01:03:44;9.30;;;4.22;;
32295;SDS011;18781;51.550;5.418;2023-05-21T01:06:12;8.00;;;3.88;;
32295;SDS011;18781;51.550;5.418;2023-05-21T01:08:38;8.90;;;4.40;;
32295;SDS011;18781;51.550;5.418;2023-05-21T01:11:05;9.30;;;4.43;;
32295;SDS011;18781;51.550;5.418;2023-05-21T01:13:33;5.53;;;4.05;;
32295;SDS011;18781;51.550;5.418;2023-05-21T01:16:03;7.30;;;4.30;;
32295;SDS011;18781;51.550;5.418;2023-05-21T01:18:30;10.10;;;4.60;;
32295;SDS011;18781;51.550;5.418;2023-05-21T01:20:58;9.60;;;4.60;;
32295;SDS011;18781;51.550;5.418;2023-05-21T01:23:27;5.88;;;4.10;;
32295;SDS011;18781;51.550;5.418;2023-05-21T01:25:53;9.63;;;4.43;;
32295;SDS011;18781;51.550;5.418;2023-05-21T01:28:19;7.35;;;4.45;;
32295;SDS011;18781;51.550;5.418;2023-05-21T01:30:44;5.78;;;4.53;;
32295;SDS011;18781;51.550;5.418;2023-05-21T01:35:43;6.93;;;4.43;;
32295;SDS011;18781;51.550;5.418;2023-05-21T01:38:24;8.65;;;4.45;;
32295;SDS011;18781;51.550;5.418;2023-05-21T01:41:06;6.18;;;4.68;;
32295;SDS011;18781;51.550;5.418;2023-05-21T01:43:37;6.93;;;4.25;;
32295;SDS011;18781;51.550;5.418;2023-05-21T01:46:05;11.88;;;4.55;;
32295;SDS011;18781;51.550;5.418;2023-05-21T01:48:33;8.15;;;5.20;;
32295;SDS011;18781;51.550;5.418;2023-05-21T01:51:01;6.50;;;4.57;;
32295;SDS011;18781;51.550;5.418;2023-05-21T01:53:28;10.32;;;5.00;;
32295;SDS011;18781;51.550;5.418;2023-05-21T01:55:53;7.82;;;5.35;;
32295;SDS011;18781;51.550;5.418;2023-05-21T01:58:19;8.95;;;5.10;;
32295;SDS011;18781;51.550;5.418;2023-05-21T02:00:46;6.90;;;4.78;;
32295;SDS011;18781;51.550;5.418;2023-05-21T02:03:14;7.85;;;4.85;;
32295;SDS011;18781;51.550;5.418;2023-05-21T02:05:41;10.00;;;4.72;;
32295;SDS011;18781;51.550;5.418;2023-05-21T02:08:07;7.15;;;4.57;;
32295;SDS011;18781;51.550;5.418;2023-05-21T02:10:36;9.35;;;4.88;;
32295;SDS011;18781;51.550;5.418;2023-05-21T02:13:02;7.45;;;4.97;;
32295;SDS011;18781;51.550;5.418;2023-05-21T02:15:28;7.57;;;4.63;;
32295;SDS011;18781;51.550;5.418;2023-05-21T02:17:54;7.72;;;5.15;;
32295;SDS011;18781;51.550;5.418;2023-05-21T02:20:19;7.78;;;5.13;;
32295;SDS011;18781;51.550;5.418;2023-05-21T02:22:46;9.60;;;4.53;;
32295;SDS011;18781;51.550;5.418;2023-05-21T02:25:13;6.75;;;4.80;;
32295;SDS011;18781;51.550;5.418;2023-05-21T02:27:40;9.07;;;4.43;;
32295;SDS011;18781;51.550;5.418;2023-05-21T02:30:08;13.48;;;5.53;;
32295;SDS011;18781;51.550;5.418;2023-05-21T02:32:35;10.13;;;4.85;;
32295;SDS011;18781;51.550;5.418;2023-05-21T02:35:01;6.38;;;4.72;;
32295;SDS011;18781;51.550;5.418;2023-05-21T02:37:28;6.78;;;4.50;;
32295;SDS011;18781;51.550;5.418;2023-05-21T02:39:57;9.00;;;4.68;;
32295;SDS011;18781;51.550;5.418;2023-05-21T02:42:23;7.20;;;5.28;;
32295;SDS011;18781;51.550;5.418;2023-05-21T02:44:49;9.63;;;5.28;;
32295;SDS011;18781;51.550;5.418;2023-05-21T02:47:16;6.18;;;4.60;;
32295;SDS011;18781;51.550;5.418;2023-05-21T02:49:42;10.27;;;5.43;;
32295;SDS011;18781;51.550;5.418;2023-05-21T02:52:08;12.68;;;5.28;;
32295;SDS011;18781;51.550;5.418;2023-05-21T02:54:33;9.38;;;5.20;;
32295;SDS011;18781;51.550;5.418;2023-05-21T02:56:59;7.43;;;5.80;;
32295;SDS011;18781;51.550;5.418;2023-05-21T02:59:25;6.78;;;5.10;;
32295;SDS011;18781;51.550;5.418;2023-05-21T03:01:50;11.07;;;5.78;;
32295;SDS011;18781;51.550;5.418;2023-05-21T03:04:16;7.32;;;5.43;;
32295;SDS011;18781;51.550;5.418;2023-05-21T03:06:42;8.52;;;5.85;;
32295;SDS011;18781;51.550;5.418;2023-05-21T03:09:08;8.13;;;5.28;;
32295;SDS011;18781;51.550;5.418;2023-05-21T03:11:34;10.30;;;5.47;;
32295;SDS011;18781;51.550;5.418;2023-05-21T03:14:00;8.32;;;5.50;;
32295;SDS011;18781;51.550;5.418;2023-05-21T03:16:26;8.05;;;5.53;;
32295;SDS011;18781;51.550;5.418;2023-05-21T03:18:52;7.63;;;5.50;;
32295;SDS011;18781;51.550;5.418;2023-05-21T03:21:18;13.55;;;6.00;;
32295;SDS011;18781;51.550;5.418;2023-05-21T03:23:46;7.85;;;5.55;;
32295;SDS011;18781;51.550;5.418;2023-05-21T03:26:15;9.00;;;5.53;;
32295;SDS011;18781;51.550;5.418;2023-05-21T03:28:40;9.00;;;5.75;;
32295;SDS011;18781;51.550;5.418;2023-05-21T03:31:06;9.13;;;6.18;;
32295;SDS011;18781;51.550;5.418;2023-05-21T03:33:32;8.82;;;5.38;;
32295;SDS011;18781;51.550;5.418;2023-05-21T03:35:57;10.65;;;5.60;;
32295;SDS011;18781;51.550;5.418;2023-05-21T03:38:23;11.80;;;6.13;;
32295;SDS011;18781;51.550;5.418;2023-05-21T03:40:48;10.32;;;6.30;;
32295;SDS011;18781;51.550;5.418;2023-05-21T03:43:14;7.97;;;5.78;;
32295;SDS011;18781;51.550;5.418;2023-05-21T03:45:40;10.30;;;5.57;;
32295;SDS011;18781;51.550;5.418;2023-05-21T03:48:05;8.30;;;5.80;;
32295;SDS011;18781;51.550;5.418;2023-05-21T03:50:31;9.55;;;5.70;;
32295;SDS011;18781;51.550;5.418;2023-05-21T03:52:56;12.52;;;6.60;;
32295;SDS011;18781;51.550;5.418;2023-05-21T03:55:22;12.05;;;6.30;;
32295;SDS011;18781;51.550;5.418;2023-05-21T03:57:47;7.80;;;5.43;;
32295;SDS011;18781;51.550;5.418;2023-05-21T04:00:13;9.18;;;6.18;;
32295;SDS011;18781;51.550;5.418;2023-05-21T04:02:39;9.38;;;5.65;;
32295;SDS011;18781;51.550;5.418;2023-05-21T04:05:05;10.32;;;6.07;;
32295;SDS011;18781;51.550;5.418;2023-05-21T04:07:31;8.70;;;6.15;;
32295;SDS011;18781;51.550;5.418;2023-05-21T04:09:56;8.20;;;6.05;;
32295;SDS011;18781;51.550;5.418;2023-05-21T04:12:22;8.60;;;6.13;;
32295;SDS011;18781;51.550;5.418;2023-05-21T04:14:47;9.15;;;5.38;;
32295;SDS011;18781;51.550;5.418;2023-05-21T04:17:13;9.27;;;6.25;;
32295;SDS011;18781;51.550;5.418;2023-05-21T04:19:38;7.82;;;6.20;;
32295;SDS011;18781;51.550;5.418;2023-05-21T04:22:04;8.02;;;5.72;;
32295;SDS011;18781;51.550;5.418;2023-05-21T04:24:30;9.75;;;6.20;;
32295;SDS011;18781;51.550;5.418;2023-05-21T04:26:55;10.77;;;6.45;;
32295;SDS011;18781;51.550;5.418;2023-05-21T04:29:28;10.70;;;6.07;;
32295;SDS011;18781;51.550;5.418;2023-05-21T04:31:54;10.82;;;6.22;;
32295;SDS011;18781;51.550;5.418;2023-05-21T04:34:19;10.63;;;6.20;;
32295;SDS011;18781;51.550;5.418;2023-05-21T04:36:45;10.70;;;6.22;;
32295;SDS011;18781;51.550;5.418;2023-05-21T04:39:12;8.57;;;6.10;;
32295;SDS011;18781;51.550;5.418;2023-05-21T04:41:38;10.38;;;6.03;;
32295;SDS011;18781;51.550;5.418;2023-05-21T04:44:08;11.50;;;6.55;;
32295;SDS011;18781;51.550;5.418;2023-05-21T04:49:00;11.05;;;6.38;;
32295;SDS011;18781;51.550;5.418;2023-05-21T04:51:27;11.38;;;6.90;;
32295;SDS011;18781;51.550;5.418;2023-05-21T04:53:53;8.68;;;5.95;;
32295;SDS011;18781;51.550;5.418;2023-05-21T04:56:18;11.50;;;6.93;;
32295;SDS011;18781;51.550;5.418;2023-05-21T04:58:46;11.70;;;7.13;;
32295;SDS011;18781;51.550;5.418;2023-05-21T05:01:13;10.25;;;6.85;;
32295;SDS011;18781;51.550;5.418;2023-05-21T05:03:39;9.77;;;7.18;;
32295;SDS011;18781;51.550;5.418;2023-05-21T05:06:05;10.43;;;6.85;;
32295;SDS011;18781;51.550;5.418;2023-05-21T05:08:31;12.57;;;7.43;;
32295;SDS011;18781;51.550;5.418;2023-05-21T05:10:57;12.45;;;7.20;;
32295;SDS011;18781;51.550;5.418;2023-05-21T05:13:23;11.73;;;7.10;;
32295;SDS011;18781;51.550;5.418;2023-05-21T05:15:49;12.82;;;7.13;;
32295;SDS011;18781;51.550;5.418;2023-05-21T05:18:16;9.38;;;6.88;;
32295;SDS011;18781;51.550;5.418;2023-05-21T05:20:41;11.82;;;6.85;;
32295;SDS011;18781;51.550;5.418;2023-05-21T05:23:07;14.40;;;7.60;;
32295;SDS011;18781;51.550;5.418;2023-05-21T05:25:32;12.18;;;7.15;;
32295;SDS011;18781;51.550;5.418;2023-05-21T05:27:58;12.45;;;7.63;;
32295;SDS011;18781;51.550;5.418;2023-05-21T05:30:23;10.63;;;7.43;;
32295;SDS011;18781;51.550;5.418;2023-05-21T05:32:49;11.88;;;8.10;;
32295;SDS011;18781;51.550;5.418;2023-05-21T05:35:15;9.85;;;7.20;;
32295;SDS011;18781;51.550;5.418;2023-05-21T05:37:40;15.18;;;7.53;;
32295;SDS011;18781;51.550;5.418;2023-05-21T05:40:06;12.13;;;7.68;;
32295;SDS011;18781;51.550;5.418;2023-05-21T05:42:32;17.73;;;8.25;;
32295;SDS011;18781;51.550;5.418;2023-05-21T05:44:57;19.05;;;8.52;;
32295;SDS011;18781;51.550;5.418;2023-05-21T05:47:23;12.75;;;7.75;;
32295;SDS011;18781;51.550;5.418;2023-05-21T05:49:48;11.02;;;8.20;;
32295;SDS011;18781;51.550;5.418;2023-05-21T05:52:14;13.52;;;7.65;;
32295;SDS011;18781;51.550;5.418;2023-05-21T05:54:40;12.15;;;7.45;;
32295;SDS011;18781;51.550;5.418;2023-05-21T05:57:05;14.95;;;8.68;;
32295;SDS011;18781;51.550;5.418;2023-05-21T05:59:31;13.55;;;8.10;;
32295;SDS011;18781;51.550;5.418;2023-05-21T06:01:58;11.15;;;8.13;;
32295;SDS011;18781;51.550;5.418;2023-05-21T06:04:26;15.45;;;8.43;;
32295;SDS011;18781;51.550;5.418;2023-05-21T06:06:54;11.15;;;8.02;;
32295;SDS011;18781;51.550;5.418;2023-05-21T06:09:21;12.10;;;8.45;;
32295;SDS011;18781;51.550;5.418;2023-05-21T06:11:47;15.70;;;8.27;;
32295;SDS011;18781;51.550;5.418;2023-05-21T06:14:13;13.75;;;8.07;;
32295;SDS011;18781;51.550;5.418;2023-05-21T06:16:38;12.48;;;8.45;;
32295;SDS011;18781;51.550;5.418;2023-05-21T06:19:04;14.38;;;7.82;;
32295;SDS011;18781;51.550;5.418;2023-05-21T06:21:29;12.95;;;8.38;;
32295;SDS011;18781;51.550;5.418;2023-05-21T06:23:55;11.57;;;8.43;;
32295;SDS011;18781;51.550;5.418;2023-05-21T06:26:21;14.45;;;8.98;;
32295;SDS011;18781;51.550;5.418;2023-05-21T06:28:47;11.68;;;8.50;;
32295;SDS011;18781;51.550;5.418;2023-05-21T06:31:13;12.18;;;8.60;;
32295;SDS011;18781;51.550;5.418;2023-05-21T06:33:38;16.15;;;9.23;;
32295;SDS011;18781;51.550;5.418;2023-05-21T06:36:04;18.13;;;8.80;;
32295;SDS011;18781;51.550;5.418;2023-05-21T06:38:30;11.32;;;8.43;;
32295;SDS011;18781;51.550;5.418;2023-05-21T06:40:55;10.45;;;7.93;;
32295;SDS011;18781;51.550;5.418;2023-05-21T06:43:22;12.10;;;8.73;;
32295;SDS011;18781;51.550;5.418;2023-05-21T06:45:48;11.68;;;8.60;;
32295;SDS011;18781;51.550;5.418;2023-05-21T06:48:14;14.23;;;9.02;;
32295;SDS011;18781;51.550;5.418;2023-05-21T06:50:43;11.68;;;8.85;;
32295;SDS011;18781;51.550;5.418;2023-05-21T06:53:08;10.98;;;8.30;;
32295;SDS011;18781;51.550;5.418;2023-05-21T06:55:34;14.48;;;9.25;;
32295;SDS011;18781;51.550;5.418;2023-05-21T06:58:00;13.90;;;9.32;;
32295;SDS011;18781;51.550;5.418;2023-05-21T07:00:25;14.32;;;9.80;;
32295;SDS011;18781;51.550;5.418;2023-05-21T07:02:51;11.32;;;9.52;;
32295;SDS011;18781;51.550;5.418;2023-05-21T07:05:17;15.75;;;9.68;;
32295;SDS011;18781;51.550;5.418;2023-05-21T07:07:42;15.25;;;9.80;;
32295;SDS011;18781;51.550;5.418;2023-05-21T07:10:08;12.95;;;8.55;;
32295;SDS011;18781;51.550;5.418;2023-05-21T07:12:34;17.77;;;9.55;;
32295;SDS011;18781;51.550;5.418;2023-05-21T07:15:00;15.40;;;9.75;;
32295;SDS011;18781;51.550;5.418;2023-05-21T07:17:25;15.18;;;9.68;;
32295;SDS011;18781;51.550;5.418;2023-05-21T07:19:51;15.63;;;9.45;;
32295;SDS011;18781;51.550;5.418;2023-05-21T07:22:16;14.75;;;10.02;;
32295;SDS011;18781;51.550;5.418;2023-05-21T07:24:42;14.07;;;9.70;;
32295;SDS011;18781;51.550;5.418;2023-05-21T07:27:08;13.88;;;10.13;;
32295;SDS011;18781;51.550;5.418;2023-05-21T07:29:33;14.98;;;10.25;;
32295;SDS011;18781;51.550;5.418;2023-05-21T07:31:59;12.05;;;9.63;;
32295;SDS011;18781;51.550;5.418;2023-05-21T07:34:24;14.98;;;10.30;;
32295;SDS011;18781;51.550;5.418;2023-05-21T07:36:50;14.18;;;9.65;;
32295;SDS011;18781;51.550;5.418;2023-05-21T07:39:16;16.25;;;9.90;;
32295;SDS011;18781;51.550;5.418;2023-05-21T07:41:42;16.63;;;9.68;;
32295;SDS011;18781;51.550;5.418;2023-05-21T07:44:07;14.18;;;10.05;;
32295;SDS011;18781;51.550;5.418;2023-05-21T07:46:33;16.17;;;9.93;;
32295;SDS011;18781;51.550;5.418;2023-05-21T07:48:59;14.75;;;10.57;;
32295;SDS011;18781;51.550;5.418;2023-05-21T07:51:25;18.38;;;11.05;;
32295;SDS011;18781;51.550;5.418;2023-05-21T07:53:51;17.33;;;10.35;;
32295;SDS011;18781;51.550;5.418;2023-05-21T07:56:16;17.50;;;10.48;;
32295;SDS011;18781;51.550;5.418;2023-05-21T07:58:42;13.40;;;10.15;;
32295;SDS011;18781;51.550;5.418;2023-05-21T08:01:09;16.70;;;10.75;;
32295;SDS011;18781;51.550;5.418;2023-05-21T08:03:35;19.10;;;11.90;;
32295;SDS011;18781;51.550;5.418;2023-05-21T08:06:01;15.88;;;10.98;;
32295;SDS011;18781;51.550;5.418;2023-05-21T08:08:27;24.48;;;11.05;;
32295;SDS011;18781;51.550;5.418;2023-05-21T08:10:52;19.75;;;11.68;;
32295;SDS011;18781;51.550;5.418;2023-05-21T08:13:18;18.60;;;11.98;;
32295;SDS011;18781;51.550;5.418;2023-05-21T08:15:44;15.52;;;11.00;;
32295;SDS011;18781;51.550;5.418;2023-05-21T08:18:09;16.95;;;11.00;;
32295;SDS011;18781;51.550;5.418;2023-05-21T08:20:35;14.18;;;10.75;;
32295;SDS011;18781;51.550;5.418;2023-05-21T08:23:01;15.30;;;10.90;;
32295;SDS011;18781;51.550;5.418;2023-05-21T08:25:27;16.83;;;11.00;;
32295;SDS011;18781;51.550;5.418;2023-05-21T08:27:52;14.10;;;10.45;;
32295;SDS011;18781;51.550;5.418;2023-05-21T08:30:18;19.17;;;11.98;;
32295;SDS011;18781;51.550;5.418;2023-05-21T08:32:44;17.65;;;10.93;;
32295;SDS011;18781;51.550;5.418;2023-05-21T08:35:10;17.38;;;10.95;;
32295;SDS011;18781;51.550;5.418;2023-05-21T08:37:36;17.13;;;11.77;;
32295;SDS011;18781;51.550;5.418;2023-05-21T08:40:01;17.48;;;12.13;;
32295;SDS011;18781;51.550;5.418;2023-05-21T08:45:00;15.15;;;11.77;;
32295;SDS011;18781;51.550;5.418;2023-05-21T08:47:29;17.58;;;11.88;;
32295;SDS011;18781;51.550;5.418;2023-05-21T08:49:59;16.45;;;11.57;;
32295;SDS011;18781;51.550;5.418;2023-05-21T08:52:24;15.98;;;10.95;;
32295;SDS011;18781;51.550;5.418;2023-05-21T08:54:51;17.45;;;12.23;;
32295;SDS011;18781;51.550;5.418;2023-05-21T08:57:17;18.13;;;11.98;;
32295;SDS011;18781;51.550;5.418;2023-05-21T08:59:44;16.63;;;11.73;;
32295;SDS011;18781;51.550;5.418;2023-05-21T09:02:11;16.40;;;11.43;;
32295;SDS011;18781;51.550;5.418;2023-05-21T09:04:41;17.83;;;11.30;;
32295;SDS011;18781;51.550;5.418;2023-05-21T09:07:13;15.68;;;11.73;;
32295;SDS011;18781;51.550;5.418;2023-05-21T09:09:45;18.60;;;12.68;;
32295;SDS011;18781;51.550;5.418;2023-05-21T09:12:15;17.58;;;11.57;;
32295;SDS011;18781;51.550;5.418;2023-05-21T09:14:41;16.08;;;11.32;;
32295;SDS011;18781;51.550;5.418;2023-05-21T09:17:07;16.58;;;11.50;;
32295;SDS011;18781;51.550;5.418;2023-05-21T09:19:32;16.15;;;10.68;;
32295;SDS011;18781;51.550;5.418;2023-05-21T09:22:01;17.38;;;11.50;;
32295;SDS011;18781;51.550;5.418;2023-05-21T09:24:31;19.52;;;11.98;;
32295;SDS011;18781;51.550;5.418;2023-05-21T09:26:57;17.30;;;11.25;;
32295;SDS011;18781;51.550;5.418;2023-05-21T09:29:23;18.95;;;12.13;;
32295;SDS011;18781;51.550;5.418;2023-05-21T09:31:50;19.80;;;11.93;;
32295;SDS011;18781;51.550;5.418;2023-05-21T09:34:15;17.52;;;11.18;;
32295;SDS011;18781;51.550;5.418;2023-05-21T09:36:41;17.45;;;10.82;;
32295;SDS011;18781;51.550;5.418;2023-05-21T09:44:06;19.45;;;11.40;;
32295;SDS011;18781;51.550;5.418;2023-05-21T09:46:38;17.92;;;12.43;;
32295;SDS011;18781;51.550;5.418;2023-05-21T09:49:05;17.25;;;11.95;;
32295;SDS011;18781;51.550;5.418;2023-05-21T09:51:31;19.17;;;12.77;;
32295;SDS011;18781;51.550;5.418;2023-05-21T09:53:56;19.90;;;12.90;;
32295;SDS011;18781;51.550;5.418;2023-05-21T09:56:23;22.88;;;12.20;;
32295;SDS011;18781;51.550;5.418;2023-05-21T09:58:50;18.17;;;12.85;;
32295;SDS011;18781;51.550;5.418;2023-05-21T10:01:20;20.50;;;12.55;;
32295;SDS011;18781;51.550;5.418;2023-05-21T10:03:52;19.98;;;12.45;;
32295;SDS011;18781;51.550;5.418;2023-05-21T10:06:26;20.85;;;12.57;;
32295;SDS011;18781;51.550;5.418;2023-05-21T10:08:54;20.73;;;13.60;;
32295;SDS011;18781;51.550;5.418;2023-05-21T10:11:21;19.80;;;13.20;;
32295;SDS011;18781;51.550;5.418;2023-05-21T10:13:50;17.85;;;12.05;;
32295;SDS011;18781;51.550;5.418;2023-05-21T10:16:27;20.33;;;13.85;;
32295;SDS011;18781;51.550;5.418;2023-05-21T10:18:56;17.70;;;12.60;;
32295;SDS011;18781;51.550;5.418;2023-05-21T10:21:22;18.45;;;12.70;;
32295;SDS011;18781;51.550;5.418;2023-05-21T10:23:50;21.52;;;13.13;;
32295;SDS011;18781;51.550;5.418;2023-05-21T10:26:16;19.08;;;13.10;;
32295;SDS011;18781;51.550;5.418;2023-05-21T10:28:46;20.08;;;13.80;;
32295;SDS011;18781;51.550;5.418;2023-05-21T10:31:13;22.35;;;13.48;;
32295;SDS011;18781;51.550;5.418;2023-05-21T10:33:40;21.88;;;13.57;;
32295;SDS011;18781;51.550;5.418;2023-05-21T10:36:06;21.42;;;14.75;;
32295;SDS011;18781;51.550;5.418;2023-05-21T10:38:32;19.80;;;13.68;;
32295;SDS011;18781;51.550;5.418;2023-05-21T10:40:58;19.13;;;14.05;;
32295;SDS011;18781;51.550;5.418;2023-05-21T10:43:30;17.60;;;13.80;;
32295;SDS011;18781;51.550;5.418;2023-05-21T10:51:53;24.08;;;15.32;;
32295;SDS011;18781;51.550;5.418;2023-05-21T10:54:33;19.90;;;15.00;;
32295;SDS011;18781;51.550;5.418;2023-05-21T11:00:04;22.77;;;15.88;;
32295;SDS011;18781;51.550;5.418;2023-05-21T11:02:31;20.25;;;14.98;;
32295;SDS011;18781;51.550;5.418;2023-05-21T11:04:58;20.40;;;14.43;;
32295;SDS011;18781;51.550;5.418;2023-05-21T11:13:11;22.75;;;15.20;;
32295;SDS011;18781;51.550;5.418;2023-05-21T11:21:08;24.20;;;15.00;;
32295;SDS011;18781;51.550;5.418;2023-05-21T11:26:18;26.73;;;16.27;;
32295;SDS011;18781;51.550;5.418;2023-05-21T11:28:49;25.65;;;17.13;;
32295;SDS011;18781;51.550;5.418;2023-05-21T11:31:31;22.00;;;15.55;;
32295;SDS011;18781;51.550;5.418;2023-05-21T11:36:44;24.25;;;18.17;;
32295;SDS011;18781;51.550;5.418;2023-05-21T11:39:12;25.30;;;18.52;;
32295;SDS011;18781;51.550;5.418;2023-05-21T11:44:44;25.85;;;17.50;;
32295;SDS011;18781;51.550;5.418;2023-05-21T11:47:12;32.25;;;18.85;;
32295;SDS011;18781;51.550;5.418;2023-05-21T11:49:39;31.48;;;19.77;;
32295;SDS011;18781;51.550;5.418;2023-05-21T11:52:05;27.20;;;18.63;;
32295;SDS011;18781;51.550;5.418;2023-05-21T11:54:32;26.77;;;18.67;;
32295;SDS011;18781;51.550;5.418;2023-05-21T11:57:07;23.80;;;17.30;;
32295;SDS011;18781;51.550;5.418;2023-05-21T11:59:33;22.17;;;16.45;;
32295;SDS011;18781;51.550;5.418;2023-05-21T12:02:00;26.70;;;18.95;;
32295;SDS011;18781;51.550;5.418;2023-05-21T12:04:33;27.88;;;18.17;;
32295;SDS011;18781;51.550;5.418;2023-05-21T12:07:05;29.00;;;18.23;;
32295;SDS011;18781;51.550;5.418;2023-05-21T12:12:24;30.25;;;19.83;;
32295;SDS011;18781;51.550;5.418;2023-05-21T12:14:51;26.60;;;19.67;;
32295;SDS011;18781;51.550;5.418;2023-05-21T12:17:18;29.17;;;20.33;;
32295;SDS011;18781;51.550;5.418;2023-05-21T12:19:51;28.17;;;18.60;;
32295;SDS011;18781;51.550;5.418;2023-05-21T12:22:18;26.33;;;18.90;;
32295;SDS011;18781;51.550;5.418;2023-05-21T12:24:44;25.00;;;18.95;;
32295;SDS011;18781;51.550;5.418;2023-05-21T12:27:10;29.58;;;19.83;;
32295;SDS011;18781;51.550;5.418;2023-05-21T12:29:40;29.10;;;17.65;;
32295;SDS011;18781;51.550;5.418;2023-05-21T12:32:08;32.95;;;18.38;;
32295;SDS011;18781;51.550;5.418;2023-05-21T12:34:46;27.33;;;20.65;;
32295;SDS011;18781;51.550;5.418;2023-05-21T12:37:19;26.55;;;18.65;;
32295;SDS011;18781;51.550;5.418;2023-05-21T12:39:50;28.42;;;20.00;;
32295;SDS011;18781;51.550;5.418;2023-05-21T12:42:30;27.52;;;19.08;;
32295;SDS011;18781;51.550;5.418;2023-05-21T12:44:59;29.08;;;20.00;;
32295;SDS011;18781;51.550;5.418;2023-05-21T12:47:30;30.75;;;19.05;;
32295;SDS011;18781;51.550;5.418;2023-05-21T12:49:56;24.25;;;18.25;;
32295;SDS011;18781;51.550;5.418;2023-05-21T12:52:22;25.88;;;19.23;;
32295;SDS011;18781;51.550;5.418;2023-05-21T12:54:49;26.58;;;18.90;;
32295;SDS011;18781;51.550;5.418;2023-05-21T12:57:17;26.45;;;18.35;;
32295;SDS011;18781;51.550;5.418;2023-05-21T12:59:45;25.33;;;17.95;;
32295;SDS011;18781;51.550;5.418;2023-05-21T13:02:15;29.25;;;19.08;;
32295;SDS011;18781;51.550;5.418;2023-05-21T13:04:48;28.92;;;19.73;;
32295;SDS011;18781;51.550;5.418;2023-05-21T13:07:17;24.90;;;17.77;;
32295;SDS011;18781;51.550;5.418;2023-05-21T13:09:43;25.50;;;17.23;;
32295;SDS011;18781;51.550;5.418;2023-05-21T13:12:09;26.27;;;19.27;;
32295;SDS011;18781;51.550;5.418;2023-05-21T13:14:35;25.33;;;18.33;;
32295;SDS011;18781;51.550;5.418;2023-05-21T13:17:01;31.90;;;19.50;;
32295;SDS011;18781;51.550;5.418;2023-05-21T13:19:26;31.65;;;17.98;;
32295;SDS011;18781;51.550;5.418;2023-05-21T13:21:52;22.92;;;17.20;;
32295;SDS011;18781;51.550;5.418;2023-05-21T13:24:18;24.27;;;18.40;;
32295;SDS011;18781;51.550;5.418;2023-05-21T13:26:43;20.67;;;16.65;;
32295;SDS011;18781;51.550;5.418;2023-05-21T13:29:09;27.25;;;18.77;;
32295;SDS011;18781;51.550;5.418;2023-05-21T13:31:38;23.85;;;17.33;;
32295;SDS011;18781;51.550;5.418;2023-05-21T13:34:04;24.98;;;17.00;;
32295;SDS011;18781;51.550;5.418;2023-05-21T13:36:31;25.45;;;16.98;;
32295;SDS011;18781;51.550;5.418;2023-05-21T13:38:57;23.92;;;17.35;;
32295;SDS011;18781;51.550;5.418;2023-05-21T13:41:23;21.50;;;15.80;;
32295;SDS011;18781;51.550;5.418;2023-05-21T13:43:48;21.35;;;15.43;;
32295;SDS011;18781;51.550;5.418;2023-05-21T13:46:14;24.80;;;16.77;;
32295;SDS011;18781;51.550;5.418;2023-05-21T13:48:39;27.00;;;17.30;;
32295;SDS011;18781;51.550;5.418;2023-05-21T13:51:08;23.38;;;17.45;;
32295;SDS011;18781;51.550;5.418;2023-05-21T13:53:33;22.80;;;16.02;;
32295;SDS011;18781;51.550;5.418;2023-05-21T13:55:59;25.05;;;17.80;;
32295;SDS011;18781;51.550;5.418;2023-05-21T13:58:25;21.52;;;16.67;;
32295;SDS011;18781;51.550;5.418;2023-05-21T14:00:51;25.52;;;17.50;;
32295;SDS011;18781;51.550;5.418;2023-05-21T14:03:18;25.98;;;17.73;;
32295;SDS011;18781;51.550;5.418;2023-05-21T14:05:43;23.27;;;17.63;;
32295;SDS011;18781;51.550;5.418;2023-05-21T14:08:10;22.02;;;16.20;;
32295;SDS011;18781;51.550;5.418;2023-05-21T14:10:36;23.48;;;17.83;;
32295;SDS011;18781;51.550;5.418;2023-05-21T14:13:02;23.73;;;16.30;;
32295;SDS011;18781;51.550;5.418;2023-05-21T14:15:27;25.63;;;16.40;;
32295;SDS011;18781;51.550;5.418;2023-05-21T14:17:53;22.00;;;15.20;;
32295;SDS011;18781;51.550;5.418;2023-05-21T14:20:19;23.35;;;15.15;;
32295;SDS011;18781;51.550;5.418;2023-05-21T14:22:44;25.10;;;16.52;;
32295;SDS011;18781;51.550;5.418;2023-05-21T14:25:10;22.30;;;16.08;;
32295;SDS011;18781;51.550;5.418;2023-05-21T14:27:41;22.60;;;16.63;;
32295;SDS011;18781;51.550;5.418;2023-05-21T14:30:07;21.88;;;15.73;;
32295;SDS011;18781;51.550;5.418;2023-05-21T14:32:33;25.33;;;15.75;;
32295;SDS011;18781;51.550;5.418;2023-05-21T14:34:58;18.85;;;14.68;;
32295;SDS011;18781;51.550;5.418;2023-05-21T14:37:24;21.52;;;15.13;;
32295;SDS011;18781;51.550;5.418;2023-05-21T14:39:50;25.70;;;15.88;;
32295;SDS011;18781;51.550;5.418;2023-05-21T14:42:15;20.83;;;14.32;;
32295;SDS011;18781;51.550;5.418;2023-05-21T14:44:41;20.92;;;14.48;;
32295;SDS011;18781;51.550;5.418;2023-05-21T14:47:06;20.10;;;13.93;;
32295;SDS011;18781;51.550;5.418;2023-05-21T14:49:32;20.50;;;14.95;;
32295;SDS011;18781;51.550;5.418;2023-05-21T14:51:57;22.05;;;14.85;;
32295;SDS011;18781;51.550;5.418;2023-05-21T14:54:23;21.98;;;14.32;;
32295;SDS011;18781;51.550;5.418;2023-05-21T14:56:48;22.33;;;14.48;;
32295;SDS011;18781;51.550;5.418;2023-05-21T14:59:14;19.95;;;14.75;;
32295;SDS011;18781;51.550;5.418;2023-05-21T15:01:40;20.60;;;14.65;;
32295;SDS011;18781;51.550;5.418;2023-05-21T15:04:05;23.30;;;13.27;;
32295;SDS011;18781;51.550;5.418;2023-05-21T15:06:31;19.02;;;14.27;;
32295;SDS011;18781;51.550;5.418;2023-05-21T15:08:58;16.65;;;13.38;;
32295;SDS011;18781;51.550;5.418;2023-05-21T15:11:24;20.75;;;14.27;;